sensor_id;sensor_type;location;lat;lon;timestamp;P1;durP1;ratioP1;P2;durP2;ratioP2
13204;SDS011;6667;52.634;9.226;2023-11-19T00:01:52;3.60;;;2.87;;
13204;SDS011;6667;52.634;9.226;2023-11-19T00:04:19;5.37;;;3.20;;
13204;SDS011;6667;52.634;9.226;2023-11-19T00:06:46;3.23;;;2.80;;
13204;SDS011;6667;52.634;9.226;2023-11-19T00:09:12;4.43;;;3.03;;
13204;SDS011;6667;52.634;9.226;2023-11-19T00:11:43;2.97;;;2.67;;
13204;SDS011;6667;52.634;9.226;2023-11-19T00:14:09;3.07;;;2.60;;
13204;SDS011;6667;52.634;9.226;2023-11-19T00:16:36;3.13;;;2.83;;
13204;SDS011;6667;52.634;9.226;2023-11-19T00:19:03;3.70;;;3.10;;
13204;SDS011;6667;52.634;9.226;2023-11-19T00:21:30;3.70;;;3.27;;
13204;SDS011;6667;52.634;9.226;2023-11-19T00:23:58;3.27;;;2.97;;
13204;SDS011;6667;52.634;9.226;2023-11-19T00:26:25;3.80;;;3.17;;
13204;SDS011;6667;52.634;9.226;2023-11-19T00:28:53;3.63;;;3.00;;
13204;SDS011;6667;52.634;9.226;2023-11-19T00:31:21;3.63;;;3.13;;
13204;SDS011;6667;52.634;9.226;2023-11-19T00:33:47;4.50;;;3.23;;
13204;SDS011;6667;52.634;9.226;2023-11-19T00:36:14;3.00;;;2.67;;
13204;SDS011;6667;52.634;9.226;2023-11-19T00:38:41;4.13;;;3.07;;
13204;SDS011;6667;52.634;9.226;2023-11-19T00:41:07;3.80;;;2.83;;
13204;SDS011;6667;52.634;9.226;2023-11-19T00:43:34;4.73;;;2.57;;
13204;SDS011;6667;52.634;9.226;2023-11-19T00:46:02;5.50;;;3.03;;
13204;SDS011;6667;52.634;9.226;2023-11-19T00:48:29;3.27;;;2.63;;
13204;SDS011;6667;52.634;9.226;2023-11-19T00:50:56;3.80;;;2.80;;
13204;SDS011;6667;52.634;9.226;2023-11-19T00:53:23;3.97;;;3.40;;
13204;SDS011;6667;52.634;9.226;2023-11-19T00:55:50;4.33;;;2.77;;
13204;SDS011;6667;52.634;9.226;2023-11-19T00:58:33;2.40;;;2.20;;
13204;SDS011;6667;52.634;9.226;2023-11-19T01:05:32;4.43;;;2.50;;
13204;SDS011;6667;52.634;9.226;2023-11-19T01:08:42;2.93;;;2.57;;
13204;SDS011;6667;52.634;9.226;2023-11-19T01:12:20;3.13;;;2.47;;
13204;SDS011;6667;52.634;9.226;2023-11-19T01:15:27;3.80;;;3.00;;
13204;SDS011;6667;52.634;9.226;2023-11-19T01:18:52;3.63;;;3.20;;
13204;SDS011;6667;52.634;9.226;2023-11-19T01:32:30;4.10;;;3.30;;
13204;SDS011;6667;52.634;9.226;2023-11-19T01:36:32;4.20;;;3.37;;
13204;SDS011;6667;52.634;9.226;2023-11-19T01:40:13;4.20;;;3.30;;
13204;SDS011;6667;52.634;9.226;2023-11-19T01:43:53;5.67;;;4.13;;
13204;SDS011;6667;52.634;9.226;2023-11-19T01:57:23;5.63;;;4.63;;
13204;SDS011;6667;52.634;9.226;2023-11-19T02:00:43;5.63;;;4.57;;
13204;SDS011;6667;52.634;9.226;2023-11-19T02:07:38;5.73;;;4.30;;
13204;SDS011;6667;52.634;9.226;2023-11-19T02:10:45;6.60;;;4.03;;
13204;SDS011;6667;52.634;9.226;2023-11-19T02:17:30;4.73;;;3.50;;
13204;SDS011;6667;52.634;9.226;2023-11-19T02:21:06;5.77;;;4.00;;
13204;SDS011;6667;52.634;9.226;2023-11-19T02:24:51;5.50;;;4.10;;
13204;SDS011;6667;52.634;9.226;2023-11-19T02:38:05;6.00;;;4.00;;
13204;SDS011;6667;52.634;9.226;2023-11-19T02:40:31;5.63;;;3.73;;
13204;SDS011;6667;52.634;9.226;2023-11-19T02:42:58;6.53;;;4.47;;
13204;SDS011;6667;52.634;9.226;2023-11-19T02:45:25;5.90;;;4.40;;
13204;SDS011;6667;52.634;9.226;2023-11-19T02:47:56;6.93;;;4.27;;
13204;SDS011;6667;52.634;9.226;2023-11-19T02:50:22;7.40;;;4.40;;
13204;SDS011;6667;52.634;9.226;2023-11-19T02:52:51;6.63;;;4.60;;
13204;SDS011;6667;52.634;9.226;2023-11-19T02:55:20;6.40;;;4.67;;
13204;SDS011;6667;52.634;9.226;2023-11-19T02:57:48;7.40;;;5.10;;
13204;SDS011;6667;52.634;9.226;2023-11-19T03:00:16;7.17;;;5.13;;
13204;SDS011;6667;52.634;9.226;2023-11-19T03:02:43;9.50;;;5.37;;
13204;SDS011;6667;52.634;9.226;2023-11-19T03:05:11;8.97;;;5.53;;
13204;SDS011;6667;52.634;9.226;2023-11-19T03:07:39;8.90;;;6.07;;
13204;SDS011;6667;52.634;9.226;2023-11-19T03:10:07;11.53;;;7.50;;
13204;SDS011;6667;52.634;9.226;2023-11-19T03:12:38;12.57;;;7.63;;
13204;SDS011;6667;52.634;9.226;2023-11-19T03:15:06;12.23;;;7.70;;
13204;SDS011;6667;52.634;9.226;2023-11-19T03:17:34;14.67;;;8.10;;
13204;SDS011;6667;52.634;9.226;2023-11-19T03:20:01;14.90;;;8.30;;
13204;SDS011;6667;52.634;9.226;2023-11-19T03:22:30;13.83;;;7.90;;
13204;SDS011;6667;52.634;9.226;2023-11-19T03:24:59;15.50;;;9.20;;
13204;SDS011;6667;52.634;9.226;2023-11-19T03:27:26;17.50;;;9.67;;
13204;SDS011;6667;52.634;9.226;2023-11-19T03:29:54;18.07;;;9.63;;
13204;SDS011;6667;52.634;9.226;2023-11-19T03:32:20;16.07;;;10.40;;
13204;SDS011;6667;52.634;9.226;2023-11-19T03:34:47;20.87;;;11.33;;
13204;SDS011;6667;52.634;9.226;2023-11-19T03:37:14;21.57;;;11.17;;
13204;SDS011;6667;52.634;9.226;2023-11-19T03:39:42;18.43;;;11.37;;
13204;SDS011;6667;52.634;9.226;2023-11-19T03:42:09;20.87;;;11.20;;
13204;SDS011;6667;52.634;9.226;2023-11-19T03:44:36;19.70;;;10.40;;
13204;SDS011;6667;52.634;9.226;2023-11-19T03:47:05;26.37;;;13.27;;
13204;SDS011;6667;52.634;9.226;2023-11-19T03:49:31;21.87;;;11.90;;
13204;SDS011;6667;52.634;9.226;2023-11-19T03:51:58;24.80;;;14.80;;
13204;SDS011;6667;52.634;9.226;2023-11-19T03:54:26;26.60;;;13.90;;
13204;SDS011;6667;52.634;9.226;2023-11-19T03:56:52;36.07;;;14.97;;
13204;SDS011;6667;52.634;9.226;2023-11-19T03:59:19;30.40;;;16.33;;
13204;SDS011;6667;52.634;9.226;2023-11-19T04:01:46;34.43;;;16.27;;
13204;SDS011;6667;52.634;9.226;2023-11-19T04:04:14;33.80;;;16.40;;
13204;SDS011;6667;52.634;9.226;2023-11-19T04:06:41;30.77;;;16.33;;
13204;SDS011;6667;52.634;9.226;2023-11-19T04:09:07;33.20;;;17.30;;
13204;SDS011;6667;52.634;9.226;2023-11-19T04:11:35;39.90;;;18.10;;
13204;SDS011;6667;52.634;9.226;2023-11-19T04:14:02;34.20;;;17.43;;
13204;SDS011;6667;52.634;9.226;2023-11-19T04:16:29;36.43;;;17.77;;
13204;SDS011;6667;52.634;9.226;2023-11-19T04:18:55;40.97;;;18.80;;
13204;SDS011;6667;52.634;9.226;2023-11-19T04:21:23;45.20;;;19.40;;
13204;SDS011;6667;52.634;9.226;2023-11-19T04:23:50;39.03;;;18.83;;
13204;SDS011;6667;52.634;9.226;2023-11-19T04:26:17;33.30;;;17.90;;
13204;SDS011;6667;52.634;9.226;2023-11-19T04:28:43;43.00;;;20.00;;
13204;SDS011;6667;52.634;9.226;2023-11-19T04:31:10;39.40;;;18.77;;
13204;SDS011;6667;52.634;9.226;2023-11-19T04:33:37;46.00;;;21.70;;
13204;SDS011;6667;52.634;9.226;2023-11-19T04:36:04;42.23;;;19.87;;
13204;SDS011;6667;52.634;9.226;2023-11-19T04:38:33;41.20;;;21.50;;
13204;SDS011;6667;52.634;9.226;2023-11-19T04:41:00;50.23;;;22.90;;
13204;SDS011;6667;52.634;9.226;2023-11-19T04:43:27;46.97;;;20.87;;
13204;SDS011;6667;52.634;9.226;2023-11-19T04:45:53;53.47;;;23.60;;
13204;SDS011;6667;52.634;9.226;2023-11-19T04:48:20;48.87;;;22.80;;
13204;SDS011;6667;52.634;9.226;2023-11-19T04:50:47;46.27;;;22.77;;
13204;SDS011;6667;52.634;9.226;2023-11-19T04:53:13;54.30;;;24.93;;
13204;SDS011;6667;52.634;9.226;2023-11-19T04:55:42;60.30;;;24.20;;
13204;SDS011;6667;52.634;9.226;2023-11-19T04:58:09;50.40;;;25.00;;
13204;SDS011;6667;52.634;9.226;2023-11-19T05:00:35;56.90;;;25.80;;
13204;SDS011;6667;52.634;9.226;2023-11-19T05:03:02;58.43;;;25.93;;
13204;SDS011;6667;52.634;9.226;2023-11-19T05:05:29;58.33;;;25.43;;
13204;SDS011;6667;52.634;9.226;2023-11-19T05:07:55;61.73;;;26.17;;
13204;SDS011;6667;52.634;9.226;2023-11-19T05:10:22;62.67;;;26.87;;
13204;SDS011;6667;52.634;9.226;2023-11-19T05:12:51;62.90;;;27.90;;
13204;SDS011;6667;52.634;9.226;2023-11-19T05:15:18;71.73;;;29.03;;
13204;SDS011;6667;52.634;9.226;2023-11-19T05:17:44;70.73;;;27.83;;
13204;SDS011;6667;52.634;9.226;2023-11-19T05:20:11;63.60;;;27.20;;
13204;SDS011;6667;52.634;9.226;2023-11-19T05:22:39;63.13;;;28.03;;
13204;SDS011;6667;52.634;9.226;2023-11-19T05:25:06;65.30;;;28.47;;
13204;SDS011;6667;52.634;9.226;2023-11-19T05:27:34;59.93;;;26.30;;
13204;SDS011;6667;52.634;9.226;2023-11-19T05:30:02;61.80;;;27.47;;
13204;SDS011;6667;52.634;9.226;2023-11-19T05:32:31;61.43;;;25.73;;
13204;SDS011;6667;52.634;9.226;2023-11-19T05:34:58;62.40;;;27.03;;
13204;SDS011;6667;52.634;9.226;2023-11-19T05:37:25;62.00;;;27.10;;
13204;SDS011;6667;52.634;9.226;2023-11-19T05:39:50;51.43;;;23.83;;
13204;SDS011;6667;52.634;9.226;2023-11-19T05:42:17;58.50;;;26.00;;
13204;SDS011;6667;52.634;9.226;2023-11-19T05:44:44;59.67;;;26.17;;
13204;SDS011;6667;52.634;9.226;2023-11-19T05:47:12;64.63;;;25.57;;
13204;SDS011;6667;52.634;9.226;2023-11-19T05:49:39;61.77;;;26.63;;
13204;SDS011;6667;52.634;9.226;2023-11-19T05:52:06;59.70;;;24.30;;
13204;SDS011;6667;52.634;9.226;2023-11-19T05:54:34;57.67;;;25.07;;
13204;SDS011;6667;52.634;9.226;2023-11-19T05:57:03;59.07;;;24.10;;
13204;SDS011;6667;52.634;9.226;2023-11-19T05:59:30;64.63;;;25.80;;
13204;SDS011;6667;52.634;9.226;2023-11-19T06:01:58;41.53;;;20.13;;
13204;SDS011;6667;52.634;9.226;2023-11-19T06:04:26;52.77;;;21.27;;
13204;SDS011;6667;52.634;9.226;2023-11-19T06:06:53;52.87;;;21.87;;
13204;SDS011;6667;52.634;9.226;2023-11-19T06:09:20;42.53;;;19.70;;
13204;SDS011;6667;52.634;9.226;2023-11-19T06:11:48;51.07;;;18.47;;
13204;SDS011;6667;52.634;9.226;2023-11-19T06:14:15;36.67;;;18.03;;
13204;SDS011;6667;52.634;9.226;2023-11-19T06:16:42;38.77;;;17.50;;
13204;SDS011;6667;52.634;9.226;2023-11-19T06:19:09;40.13;;;16.73;;
13204;SDS011;6667;52.634;9.226;2023-11-19T06:21:38;42.93;;;17.17;;
13204;SDS011;6667;52.634;9.226;2023-11-19T06:24:05;51.20;;;18.77;;
13204;SDS011;6667;52.634;9.226;2023-11-19T06:26:32;38.80;;;17.10;;
13204;SDS011;6667;52.634;9.226;2023-11-19T06:28:59;46.87;;;17.53;;
13204;SDS011;6667;52.634;9.226;2023-11-19T06:31:25;40.63;;;15.20;;
13204;SDS011;6667;52.634;9.226;2023-11-19T06:33:52;42.83;;;16.30;;
13204;SDS011;6667;52.634;9.226;2023-11-19T06:36:19;50.17;;;15.03;;
13204;SDS011;6667;52.634;9.226;2023-11-19T06:38:48;47.73;;;16.33;;
13204;SDS011;6667;52.634;9.226;2023-11-19T06:41:14;38.83;;;15.00;;
13204;SDS011;6667;52.634;9.226;2023-11-19T06:43:41;43.03;;;14.27;;
13204;SDS011;6667;52.634;9.226;2023-11-19T06:46:14;39.63;;;13.37;;
13204;SDS011;6667;52.634;9.226;2023-11-19T06:48:41;41.47;;;13.13;;
13204;SDS011;6667;52.634;9.226;2023-11-19T06:51:09;43.07;;;15.17;;
13204;SDS011;6667;52.634;9.226;2023-11-19T06:53:35;42.33;;;12.50;;
13204;SDS011;6667;52.634;9.226;2023-11-19T06:56:03;36.17;;;12.07;;
13204;SDS011;6667;52.634;9.226;2023-11-19T06:58:35;41.87;;;13.57;;
13204;SDS011;6667;52.634;9.226;2023-11-19T07:01:02;34.67;;;13.23;;
13204;SDS011;6667;52.634;9.226;2023-11-19T07:03:29;39.43;;;12.90;;
13204;SDS011;6667;52.634;9.226;2023-11-19T07:05:56;38.73;;;12.80;;
13204;SDS011;6667;52.634;9.226;2023-11-19T07:08:22;39.57;;;13.33;;
13204;SDS011;6667;52.634;9.226;2023-11-19T07:10:49;37.93;;;11.53;;
13204;SDS011;6667;52.634;9.226;2023-11-19T07:13:18;51.03;;;12.40;;
13204;SDS011;6667;52.634;9.226;2023-11-19T07:15:44;42.57;;;13.10;;
13204;SDS011;6667;52.634;9.226;2023-11-19T07:18:11;38.50;;;12.47;;
13204;SDS011;6667;52.634;9.226;2023-11-19T07:20:39;48.07;;;11.73;;
13204;SDS011;6667;52.634;9.226;2023-11-19T07:23:07;36.50;;;11.53;;
13204;SDS011;6667;52.634;9.226;2023-11-19T07:25:33;40.50;;;11.33;;
13204;SDS011;6667;52.634;9.226;2023-11-19T07:28:00;30.73;;;10.73;;
13204;SDS011;6667;52.634;9.226;2023-11-19T07:30:31;35.13;;;10.47;;
13204;SDS011;6667;52.634;9.226;2023-11-19T07:32:58;32.93;;;9.90;;
13204;SDS011;6667;52.634;9.226;2023-11-19T07:35:24;48.70;;;11.20;;
13204;SDS011;6667;52.634;9.226;2023-11-19T07:37:51;37.57;;;11.93;;
13204;SDS011;6667;52.634;9.226;2023-11-19T07:40:18;40.40;;;10.43;;
13204;SDS011;6667;52.634;9.226;2023-11-19T07:42:45;39.93;;;10.33;;
13204;SDS011;6667;52.634;9.226;2023-11-19T07:45:11;46.93;;;11.97;;
13204;SDS011;6667;52.634;9.226;2023-11-19T07:47:39;38.73;;;10.80;;
13204;SDS011;6667;52.634;9.226;2023-11-19T07:50:06;42.03;;;11.10;;
13204;SDS011;6667;52.634;9.226;2023-11-19T07:52:34;36.90;;;11.73;;
13204;SDS011;6667;52.634;9.226;2023-11-19T07:55:01;40.23;;;11.40;;
13204;SDS011;6667;52.634;9.226;2023-11-19T07:57:28;49.63;;;11.87;;
13204;SDS011;6667;52.634;9.226;2023-11-19T07:59:56;39.30;;;10.97;;
13204;SDS011;6667;52.634;9.226;2023-11-19T08:02:22;47.30;;;11.50;;
13204;SDS011;6667;52.634;9.226;2023-11-19T08:04:50;48.23;;;11.77;;
13204;SDS011;6667;52.634;9.226;2023-11-19T08:07:20;51.93;;;11.30;;
13204;SDS011;6667;52.634;9.226;2023-11-19T08:09:47;40.63;;;12.57;;
13204;SDS011;6667;52.634;9.226;2023-11-19T08:12:13;49.93;;;14.00;;
13204;SDS011;6667;52.634;9.226;2023-11-19T08:14:42;53.37;;;12.00;;
13204;SDS011;6667;52.634;9.226;2023-11-19T08:17:09;35.77;;;11.43;;
13204;SDS011;6667;52.634;9.226;2023-11-19T08:19:36;34.50;;;10.43;;
13204;SDS011;6667;52.634;9.226;2023-11-19T08:22:04;51.63;;;12.60;;
13204;SDS011;6667;52.634;9.226;2023-11-19T08:24:30;44.37;;;11.27;;
13204;SDS011;6667;52.634;9.226;2023-11-19T08:26:57;44.50;;;12.37;;
13204;SDS011;6667;52.634;9.226;2023-11-19T08:29:24;45.67;;;10.67;;
13204;SDS011;6667;52.634;9.226;2023-11-19T08:31:50;46.53;;;12.13;;
13204;SDS011;6667;52.634;9.226;2023-11-19T08:34:17;37.37;;;10.83;;
13204;SDS011;6667;52.634;9.226;2023-11-19T08:36:44;45.30;;;12.00;;
13204;SDS011;6667;52.634;9.226;2023-11-19T08:39:12;40.00;;;10.97;;
13204;SDS011;6667;52.634;9.226;2023-11-19T08:41:39;55.03;;;12.00;;
13204;SDS011;6667;52.634;9.226;2023-11-19T08:44:06;49.90;;;11.13;;
13204;SDS011;6667;52.634;9.226;2023-11-19T08:46:33;39.43;;;10.87;;
13204;SDS011;6667;52.634;9.226;2023-11-19T08:49:00;48.47;;;12.33;;
13204;SDS011;6667;52.634;9.226;2023-11-19T08:51:28;46.07;;;10.23;;
13204;SDS011;6667;52.634;9.226;2023-11-19T08:53:54;42.70;;;9.90;;
13204;SDS011;6667;52.634;9.226;2023-11-19T08:56:23;34.13;;;10.83;;
13204;SDS011;6667;52.634;9.226;2023-11-19T08:58:50;41.77;;;10.40;;
13204;SDS011;6667;52.634;9.226;2023-11-19T09:01:17;49.23;;;10.63;;
13204;SDS011;6667;52.634;9.226;2023-11-19T09:03:44;38.80;;;10.57;;
13204;SDS011;6667;52.634;9.226;2023-11-19T09:06:10;34.63;;;8.63;;
13204;SDS011;6667;52.634;9.226;2023-11-19T09:08:37;47.90;;;10.73;;
13204;SDS011;6667;52.634;9.226;2023-11-19T09:11:06;46.13;;;11.87;;
13204;SDS011;6667;52.634;9.226;2023-11-19T09:13:35;40.20;;;10.40;;
13204;SDS011;6667;52.634;9.226;2023-11-19T09:16:02;44.37;;;11.43;;
13204;SDS011;6667;52.634;9.226;2023-11-19T09:18:29;39.17;;;10.87;;
13204;SDS011;6667;52.634;9.226;2023-11-19T09:20:56;37.87;;;10.93;;
13204;SDS011;6667;52.634;9.226;2023-11-19T09:23:23;37.00;;;10.47;;
13204;SDS011;6667;52.634;9.226;2023-11-19T09:25:52;45.93;;;9.23;;
13204;SDS011;6667;52.634;9.226;2023-11-19T09:28:19;53.63;;;10.97;;
13204;SDS011;6667;52.634;9.226;2023-11-19T09:30:47;36.73;;;9.40;;
13204;SDS011;6667;52.634;9.226;2023-11-19T09:33:14;35.03;;;9.03;;
13204;SDS011;6667;52.634;9.226;2023-11-19T09:35:41;36.20;;;10.00;;
13204;SDS011;6667;52.634;9.226;2023-11-19T09:38:07;37.53;;;9.50;;
13204;SDS011;6667;52.634;9.226;2023-11-19T09:40:34;37.77;;;9.93;;
13204;SDS011;6667;52.634;9.226;2023-11-19T09:43:01;39.97;;;10.03;;
13204;SDS011;6667;52.634;9.226;2023-11-19T09:45:28;33.73;;;9.20;;
13204;SDS011;6667;52.634;9.226;2023-11-19T09:47:59;39.37;;;8.70;;
13204;SDS011;6667;52.634;9.226;2023-11-19T09:50:27;33.57;;;9.03;;
13204;SDS011;6667;52.634;9.226;2023-11-19T09:52:54;45.07;;;9.00;;
13204;SDS011;6667;52.634;9.226;2023-11-19T09:55:21;50.97;;;12.13;;
13204;SDS011;6667;52.634;9.226;2023-11-19T09:57:47;39.30;;;9.63;;
13204;SDS011;6667;52.634;9.226;2023-11-19T10:00:16;40.87;;;9.47;;
13204;SDS011;6667;52.634;9.226;2023-11-19T10:02:46;50.17;;;8.77;;
13204;SDS011;6667;52.634;9.226;2023-11-19T10:05:17;40.93;;;8.23;;
13204;SDS011;6667;52.634;9.226;2023-11-19T10:07:45;25.30;;;8.33;;
13204;SDS011;6667;52.634;9.226;2023-11-19T10:10:12;38.83;;;8.23;;
13204;SDS011;6667;52.634;9.226;2023-11-19T10:12:43;33.27;;;8.80;;
13204;SDS011;6667;52.634;9.226;2023-11-19T10:15:10;40.23;;;8.27;;
13204;SDS011;6667;52.634;9.226;2023-11-19T10:17:45;37.13;;;9.07;;
13204;SDS011;6667;52.634;9.226;2023-11-19T10:20:12;32.93;;;7.67;;
13204;SDS011;6667;52.634;9.226;2023-11-19T10:22:41;29.73;;;7.40;;
13204;SDS011;6667;52.634;9.226;2023-11-19T10:25:10;27.07;;;7.20;;
13204;SDS011;6667;52.634;9.226;2023-11-19T10:27:48;41.77;;;7.47;;
13204;SDS011;6667;52.634;9.226;2023-11-19T10:30:17;28.47;;;7.60;;
13204;SDS011;6667;52.634;9.226;2023-11-19T10:32:44;29.07;;;6.80;;
13204;SDS011;6667;52.634;9.226;2023-11-19T10:35:10;33.53;;;6.57;;
13204;SDS011;6667;52.634;9.226;2023-11-19T10:37:38;24.87;;;6.87;;
13204;SDS011;6667;52.634;9.226;2023-11-19T10:40:07;29.20;;;6.53;;
13204;SDS011;6667;52.634;9.226;2023-11-19T10:42:35;29.30;;;5.97;;
13204;SDS011;6667;52.634;9.226;2023-11-19T10:45:02;29.23;;;6.13;;
13204;SDS011;6667;52.634;9.226;2023-11-19T10:47:29;25.00;;;5.67;;
13204;SDS011;6667;52.634;9.226;2023-11-19T10:49:58;22.40;;;5.97;;
13204;SDS011;6667;52.634;9.226;2023-11-19T10:52:25;29.07;;;6.13;;
13204;SDS011;6667;52.634;9.226;2023-11-19T10:54:54;24.10;;;5.30;;
13204;SDS011;6667;52.634;9.226;2023-11-19T10:57:26;20.03;;;6.43;;
13204;SDS011;6667;52.634;9.226;2023-11-19T11:00:00;21.77;;;5.70;;
13204;SDS011;6667;52.634;9.226;2023-11-19T11:02:29;26.53;;;6.30;;
13204;SDS011;6667;52.634;9.226;2023-11-19T11:05:00;31.23;;;6.60;;
13204;SDS011;6667;52.634;9.226;2023-11-19T11:07:28;22.77;;;6.43;;
13204;SDS011;6667;52.634;9.226;2023-11-19T11:09:58;21.93;;;6.83;;
13204;SDS011;6667;52.634;9.226;2023-11-19T11:12:28;26.60;;;6.20;;
13204;SDS011;6667;52.634;9.226;2023-11-19T11:14:58;25.53;;;6.47;;
13204;SDS011;6667;52.634;9.226;2023-11-19T11:17:26;19.37;;;5.17;;
13204;SDS011;6667;52.634;9.226;2023-11-19T11:19:57;21.13;;;5.23;;
13204;SDS011;6667;52.634;9.226;2023-11-19T11:22:23;21.63;;;5.53;;
13204;SDS011;6667;52.634;9.226;2023-11-19T11:25:01;27.23;;;6.10;;
13204;SDS011;6667;52.634;9.226;2023-11-19T11:27:54;22.57;;;5.80;;
13204;SDS011;6667;52.634;9.226;2023-11-19T11:30:34;26.50;;;5.83;;
13204;SDS011;6667;52.634;9.226;2023-11-19T11:33:12;30.97;;;6.97;;
13204;SDS011;6667;52.634;9.226;2023-11-19T11:35:50;19.50;;;6.30;;
13204;SDS011;6667;52.634;9.226;2023-11-19T11:38:26;29.23;;;6.40;;
13204;SDS011;6667;52.634;9.226;2023-11-19T11:43:45;18.83;;;5.47;;
13204;SDS011;6667;52.634;9.226;2023-11-19T11:49:17;22.73;;;5.10;;
13204;SDS011;6667;52.634;9.226;2023-11-19T11:52:01;20.00;;;5.57;;
13204;SDS011;6667;52.634;9.226;2023-11-19T11:54:32;32.27;;;6.27;;
13204;SDS011;6667;52.634;9.226;2023-11-19T11:57:06;19.73;;;5.80;;
13204;SDS011;6667;52.634;9.226;2023-11-19T11:59:41;21.60;;;5.23;;
13204;SDS011;6667;52.634;9.226;2023-11-19T12:02:11;28.43;;;6.10;;
13204;SDS011;6667;52.634;9.226;2023-11-19T12:04:39;19.07;;;6.00;;
13204;SDS011;6667;52.634;9.226;2023-11-19T12:07:07;28.27;;;6.83;;
13204;SDS011;6667;52.634;9.226;2023-11-19T12:09:39;21.33;;;5.17;;
13204;SDS011;6667;52.634;9.226;2023-11-19T12:12:13;17.03;;;6.17;;
13204;SDS011;6667;52.634;9.226;2023-11-19T12:15:04;25.43;;;5.70;;
13204;SDS011;6667;52.634;9.226;2023-11-19T12:17:36;19.63;;;5.07;;
13204;SDS011;6667;52.634;9.226;2023-11-19T12:20:15;26.40;;;5.47;;
13204;SDS011;6667;52.634;9.226;2023-11-19T12:22:43;27.10;;;5.63;;
13204;SDS011;6667;52.634;9.226;2023-11-19T12:25:11;20.37;;;5.93;;
13204;SDS011;6667;52.634;9.226;2023-11-19T12:27:40;17.87;;;5.03;;
13204;SDS011;6667;52.634;9.226;2023-11-19T12:30:08;19.63;;;5.93;;
13204;SDS011;6667;52.634;9.226;2023-11-19T12:32:38;31.67;;;6.40;;
13204;SDS011;6667;52.634;9.226;2023-11-19T12:35:06;27.43;;;6.90;;
13204;SDS011;6667;52.634;9.226;2023-11-19T12:37:42;19.20;;;5.03;;
13204;SDS011;6667;52.634;9.226;2023-11-19T12:40:13;17.03;;;4.83;;
13204;SDS011;6667;52.634;9.226;2023-11-19T12:42:42;24.53;;;5.80;;
13204;SDS011;6667;52.634;9.226;2023-11-19T12:45:09;24.03;;;6.27;;
13204;SDS011;6667;52.634;9.226;2023-11-19T12:47:37;22.17;;;6.17;;
13204;SDS011;6667;52.634;9.226;2023-11-19T12:50:04;23.00;;;5.90;;
13204;SDS011;6667;52.634;9.226;2023-11-19T12:52:31;15.93;;;4.83;;
13204;SDS011;6667;52.634;9.226;2023-11-19T12:54:58;25.43;;;5.73;;
13204;SDS011;6667;52.634;9.226;2023-11-19T12:57:35;18.13;;;5.03;;
13204;SDS011;6667;52.634;9.226;2023-11-19T13:00:04;23.07;;;4.77;;
13204;SDS011;6667;52.634;9.226;2023-11-19T13:02:44;20.43;;;5.70;;
13204;SDS011;6667;52.634;9.226;2023-11-19T13:05:22;17.57;;;5.67;;
13204;SDS011;6667;52.634;9.226;2023-11-19T13:07:50;19.40;;;6.10;;
13204;SDS011;6667;52.634;9.226;2023-11-19T13:10:16;20.50;;;6.13;;
13204;SDS011;6667;52.634;9.226;2023-11-19T13:12:42;21.33;;;6.10;;
13204;SDS011;6667;52.634;9.226;2023-11-19T13:15:23;16.83;;;5.60;;
13204;SDS011;6667;52.634;9.226;2023-11-19T13:17:51;21.00;;;5.80;;
13204;SDS011;6667;52.634;9.226;2023-11-19T13:20:18;29.57;;;6.17;;
13204;SDS011;6667;52.634;9.226;2023-11-19T13:22:53;26.77;;;6.70;;
13204;SDS011;6667;52.634;9.226;2023-11-19T13:25:23;20.37;;;5.90;;
13204;SDS011;6667;52.634;9.226;2023-11-19T13:27:50;26.50;;;7.87;;
13204;SDS011;6667;52.634;9.226;2023-11-19T13:30:17;22.57;;;6.23;;
13204;SDS011;6667;52.634;9.226;2023-11-19T13:32:45;20.50;;;5.70;;
13204;SDS011;6667;52.634;9.226;2023-11-19T13:35:12;23.93;;;6.53;;
13204;SDS011;6667;52.634;9.226;2023-11-19T13:37:39;21.97;;;6.50;;
13204;SDS011;6667;52.634;9.226;2023-11-19T13:40:06;27.17;;;6.07;;
13204;SDS011;6667;52.634;9.226;2023-11-19T13:42:35;26.50;;;6.17;;
13204;SDS011;6667;52.634;9.226;2023-11-19T13:45:02;26.30;;;6.43;;
13204;SDS011;6667;52.634;9.226;2023-11-19T13:47:29;26.00;;;6.30;;
13204;SDS011;6667;52.634;9.226;2023-11-19T13:49:57;26.40;;;6.03;;
13204;SDS011;6667;52.634;9.226;2023-11-19T13:52:24;18.53;;;6.03;;
13204;SDS011;6667;52.634;9.226;2023-11-19T13:54:50;26.03;;;5.67;;
13204;SDS011;6667;52.634;9.226;2023-11-19T13:57:17;20.90;;;5.60;;
13204;SDS011;6667;52.634;9.226;2023-11-19T13:59:44;26.50;;;6.40;;
13204;SDS011;6667;52.634;9.226;2023-11-19T14:02:10;22.20;;;6.23;;
13204;SDS011;6667;52.634;9.226;2023-11-19T14:04:37;26.07;;;6.00;;
13204;SDS011;6667;52.634;9.226;2023-11-19T14:07:05;22.97;;;5.60;;
13204;SDS011;6667;52.634;9.226;2023-11-19T14:09:32;20.10;;;4.63;;
13204;SDS011;6667;52.634;9.226;2023-11-19T14:11:58;21.73;;;8.57;;
13204;SDS011;6667;52.634;9.226;2023-11-19T14:14:25;23.00;;;7.57;;
13204;SDS011;6667;52.634;9.226;2023-11-19T14:16:52;23.37;;;6.40;;
13204;SDS011;6667;52.634;9.226;2023-11-19T14:19:18;20.10;;;5.73;;
13204;SDS011;6667;52.634;9.226;2023-11-19T14:21:45;16.53;;;5.07;;
13204;SDS011;6667;52.634;9.226;2023-11-19T14:24:13;16.43;;;5.07;;
13204;SDS011;6667;52.634;9.226;2023-11-19T14:26:40;18.43;;;5.27;;
13204;SDS011;6667;52.634;9.226;2023-11-19T14:29:07;8.50;;;2.47;;
13204;SDS011;6667;52.634;9.226;2023-11-19T14:31:33;6.97;;;2.07;;
13204;SDS011;6667;52.634;9.226;2023-11-19T14:34:00;6.27;;;1.77;;
13204;SDS011;6667;52.634;9.226;2023-11-19T14:36:27;3.23;;;1.90;;
13204;SDS011;6667;52.634;9.226;2023-11-19T14:38:54;8.93;;;2.10;;
13204;SDS011;6667;52.634;9.226;2023-11-19T14:41:22;5.17;;;2.27;;
13204;SDS011;6667;52.634;9.226;2023-11-19T14:43:48;5.07;;;2.20;;
13204;SDS011;6667;52.634;9.226;2023-11-19T14:46:15;4.93;;;1.87;;
13204;SDS011;6667;52.634;9.226;2023-11-19T14:48:41;5.13;;;1.80;;
13204;SDS011;6667;52.634;9.226;2023-11-19T14:51:08;7.77;;;1.90;;
13204;SDS011;6667;52.634;9.226;2023-11-19T14:53:35;9.30;;;2.23;;
13204;SDS011;6667;52.634;9.226;2023-11-19T14:56:01;8.07;;;2.40;;
13204;SDS011;6667;52.634;9.226;2023-11-19T14:58:31;7.60;;;1.93;;
13204;SDS011;6667;52.634;9.226;2023-11-19T15:00:57;5.87;;;2.00;;
13204;SDS011;6667;52.634;9.226;2023-11-19T15:03:24;11.33;;;2.53;;
13204;SDS011;6667;52.634;9.226;2023-11-19T15:05:51;7.00;;;2.00;;
13204;SDS011;6667;52.634;9.226;2023-11-19T15:08:17;11.70;;;2.73;;
13204;SDS011;6667;52.634;9.226;2023-11-19T15:10:45;5.90;;;2.27;;
13204;SDS011;6667;52.634;9.226;2023-11-19T15:13:12;8.57;;;2.67;;
13204;SDS011;6667;52.634;9.226;2023-11-19T15:15:40;11.93;;;4.73;;
13204;SDS011;6667;52.634;9.226;2023-11-19T15:18:07;6.53;;;2.73;;
13204;SDS011;6667;52.634;9.226;2023-11-19T15:20:34;11.13;;;2.87;;
13204;SDS011;6667;52.634;9.226;2023-11-19T15:23:01;9.67;;;2.93;;
13204;SDS011;6667;52.634;9.226;2023-11-19T15:25:28;12.87;;;3.20;;
13204;SDS011;6667;52.634;9.226;2023-11-19T15:27:55;10.80;;;2.93;;
13204;SDS011;6667;52.634;9.226;2023-11-19T15:30:22;8.87;;;3.93;;
13204;SDS011;6667;52.634;9.226;2023-11-19T15:32:51;13.00;;;3.57;;
13204;SDS011;6667;52.634;9.226;2023-11-19T15:35:18;14.70;;;4.60;;
13204;SDS011;6667;52.634;9.226;2023-11-19T15:37:45;12.20;;;3.50;;
13204;SDS011;6667;52.634;9.226;2023-11-19T15:40:12;14.10;;;4.77;;
13204;SDS011;6667;52.634;9.226;2023-11-19T15:42:38;11.70;;;4.23;;
13204;SDS011;6667;52.634;9.226;2023-11-19T15:45:06;17.40;;;6.07;;
13204;SDS011;6667;52.634;9.226;2023-11-19T15:47:33;18.63;;;4.90;;
13204;SDS011;6667;52.634;9.226;2023-11-19T15:50:02;19.37;;;4.90;;
13204;SDS011;6667;52.634;9.226;2023-11-19T15:52:29;16.13;;;5.70;;
13204;SDS011;6667;52.634;9.226;2023-11-19T15:54:56;21.47;;;5.40;;